createdAt,value
2022-10-13T01:03:36.541Z,34.55
2022-10-13T01:06:05.798Z,34.95
2022-10-13T01:08:34.623Z,36.42
2022-10-13T01:11:04.698Z,33.80
2022-10-13T01:13:48.116Z,33.17
2022-10-13T01:17:03.350Z,31.13
2022-10-13T01:20:23.264Z,30.40
2022-10-13T01:23:45.606Z,33.20
2022-10-13T01:26:18.549Z,29.52
2022-10-13T01:29:13.082Z,28.50
2022-10-13T01:32:18.168Z,29.55
2022-10-13T01:35:15.346Z,27.92
2022-10-13T01:37:56.476Z,28.45
2022-10-13T01:40:38.851Z,31.33
2022-10-13T01:43:25.219Z,28.95
2022-10-13T01:46:17.725Z,28.98
2022-10-13T01:48:47.894Z,29.70
2022-10-13T01:51:19.831Z,27.60
2022-10-13T01:53:49.170Z,29.25
2022-10-13T01:56:16.497Z,29.85
2022-10-13T01:58:45.692Z,31.25
2022-10-13T02:01:36.240Z,29.60
2022-10-13T02:04:26.052Z,30.25
2022-10-13T02:07:25.152Z,28.20
2022-10-13T02:10:09.616Z,27.98
2022-10-13T02:12:49.961Z,28.58
2022-10-13T02:15:24.649Z,28.17
2022-10-13T02:17:53.342Z,27.75
2022-10-13T02:20:22.217Z,26.83
2022-10-13T02:22:58.874Z,26.48
2022-10-13T02:25:27.679Z,28.83
2022-10-13T02:27:58.062Z,30.55
2022-10-13T02:30:30.072Z,30.75
2022-10-13T02:32:57.449Z,30.95
2022-10-13T02:35:24.709Z,33.72
2022-10-13T02:37:52.177Z,32.05
2022-10-13T02:40:20.003Z,33.38
2022-10-13T02:42:47.266Z,31.92
2022-10-13T02:45:15.269Z,33.55
2022-10-13T02:47:42.600Z,32.25
2022-10-13T02:50:10.452Z,31.38
2022-10-13T02:52:38.126Z,32.90
2022-10-13T02:55:06.672Z,30.42
2022-10-13T02:57:35.434Z,31.73
2022-10-13T03:00:02.764Z,30.08
2022-10-13T03:02:30.003Z,31.40
2022-10-13T03:04:57.253Z,31.13
2022-10-13T03:07:24.570Z,28.95
2022-10-13T03:09:52.047Z,27.85
2022-10-13T03:12:19.634Z,32.08
2022-10-13T03:14:47.148Z,30.25
2022-10-13T03:17:14.431Z,30.00
2022-10-13T03:19:41.706Z,28.40
2022-10-13T03:22:09.247Z,27.17
2022-10-13T03:24:36.561Z,25.67
2022-10-13T03:27:03.993Z,25.60
2022-10-13T03:29:31.460Z,26.27
2022-10-13T03:31:58.753Z,25.25
2022-10-13T03:34:26.110Z,25.55
2022-10-13T03:36:53.397Z,26.63
2022-10-13T03:39:20.617Z,25.75
2022-10-13T03:41:47.883Z,25.02
2022-10-13T03:44:15.588Z,25.80
2022-10-13T03:46:43.099Z,26.38
2022-10-13T03:49:11.895Z,24.77
2022-10-13T03:51:39.622Z,25.05
2022-10-13T03:54:06.993Z,26.27
2022-10-13T03:56:34.187Z,26.90
2022-10-13T03:59:01.836Z,29.83
2022-10-13T04:01:30.886Z,29.98
2022-10-13T04:04:00.170Z,29.95
2022-10-13T04:06:28.056Z,29.77
2022-10-13T04:08:55.900Z,30.92
2022-10-13T04:11:23.196Z,30.83
2022-10-13T04:13:50.873Z,29.30
2022-10-13T04:16:25.962Z,29.58
2022-10-13T04:19:00.843Z,29.75
2022-10-13T04:21:30.403Z,29.77
2022-10-13T04:23:59.823Z,28.77
2022-10-13T04:26:31.267Z,29.98
2022-10-13T04:28:59.823Z,26.90
2022-10-13T04:33:57.126Z,25.95
2022-10-13T04:36:25.048Z,27.33
2022-10-13T04:38:54.046Z,25.80
2022-10-13T04:41:22.505Z,27.02
2022-10-13T04:46:22.709Z,25.65
2022-10-13T04:48:50.831Z,26.65
2022-10-13T04:51:22.516Z,28.90
2022-10-13T04:53:57.275Z,26.83
2022-10-13T04:56:26.029Z,27.63
2022-10-13T05:01:25.124Z,26.40
2022-10-13T05:04:00.966Z,25.70
2022-10-13T05:06:35.326Z,26.52
2022-10-13T05:09:04.033Z,29.20
2022-10-13T05:11:32.362Z,27.08
2022-10-13T05:14:01.251Z,27.48
2022-10-13T05:16:29.429Z,28.45
2022-10-13T05:18:56.930Z,26.10
2022-10-13T05:21:28.790Z,27.83
2022-10-13T05:23:57.535Z,27.23
2022-10-13T05:26:29.241Z,25.75
2022-10-13T05:29:02.501Z,28.55
2022-10-13T05:31:32.758Z,27.83
2022-10-13T05:34:01.286Z,28.35
2022-10-13T05:36:35.207Z,30.40
2022-10-13T05:39:08.789Z,28.48
2022-10-13T05:41:36.192Z,28.48
2022-10-13T05:44:08.632Z,28.77
2022-10-13T05:46:36.921Z,28.58
2022-10-13T05:49:04.865Z,27.35
2022-10-13T05:51:41.965Z,29.50
2022-10-13T05:54:44.357Z,27.38
2022-10-13T05:57:22.630Z,30.83
2022-10-13T06:00:00.720Z,29.15
2022-10-13T06:02:38.168Z,26.73
2022-10-13T06:05:12.597Z,29.73
2022-10-13T06:07:39.896Z,30.10
2022-10-13T06:10:07.526Z,29.50
2022-10-13T06:12:34.902Z,28.17
2022-10-13T06:15:02.087Z,28.63
2022-10-13T06:17:29.549Z,26.50
2022-10-13T06:19:59.565Z,27.35
2022-10-13T06:22:29.240Z,29.27
2022-10-13T06:24:59.774Z,27.05
2022-10-13T06:27:27.869Z,24.42
2022-10-13T06:29:55.849Z,23.05
2022-10-13T06:32:23.611Z,24.23
2022-10-13T06:34:51.423Z,24.17
2022-10-13T06:37:21.223Z,23.38
2022-10-13T06:39:52.189Z,24.15
2022-10-13T06:42:19.788Z,23.02
2022-10-13T06:44:47.342Z,25.67
2022-10-13T06:47:14.848Z,25.17
2022-10-13T06:49:42.218Z,25.63
2022-10-13T06:52:10.638Z,25.27
2022-10-13T06:54:38.061Z,26.40
2022-10-13T06:57:08.535Z,26.63
2022-10-13T06:59:35.896Z,27.35
2022-10-13T07:02:03.245Z,26.80
2022-10-13T07:04:30.503Z,26.02
2022-10-13T07:06:58.133Z,26.38
2022-10-13T07:09:25.694Z,26.97
2022-10-13T07:11:53.036Z,25.83
2022-10-13T07:14:20.387Z,25.83
2022-10-13T07:16:50.694Z,27.15
2022-10-13T07:19:18.011Z,26.88
2022-10-13T07:21:45.284Z,25.20
2022-10-13T07:24:13.108Z,24.08
2022-10-13T07:26:40.493Z,25.95
2022-10-13T07:29:08.830Z,25.15
2022-10-13T07:31:36.233Z,25.02
2022-10-13T07:34:05.097Z,25.15
2022-10-13T07:36:33.750Z,24.35
2022-10-13T07:39:03.338Z,24.63
2022-10-13T07:41:30.747Z,25.13
2022-10-13T07:43:58.897Z,23.88
2022-10-13T07:46:26.708Z,25.30
2022-10-13T07:48:54.992Z,25.63
2022-10-13T07:51:23.622Z,25.90
2022-10-13T07:53:51.262Z,24.10
2022-10-13T07:56:18.573Z,25.63
2022-10-13T07:58:47.635Z,24.42
2022-10-13T08:01:16.655Z,24.25
2022-10-13T08:03:49.805Z,24.08
2022-10-13T08:06:18.897Z,24.13
2022-10-13T08:08:46.285Z,25.65
2022-10-13T08:11:17.023Z,23.85
2022-10-13T08:13:50.907Z,23.83
2022-10-13T08:16:19.084Z,23.00
2022-10-13T08:18:46.935Z,24.05
2022-10-13T08:21:56.766Z,22.83
2022-10-13T08:24:09.103Z,21.95
2022-10-13T08:26:36.359Z,23.88
2022-10-13T08:31:54.064Z,22.88
2022-10-13T08:34:24.016Z,22.17
2022-10-13T08:36:55.434Z,22.63
2022-10-13T08:39:24.368Z,22.60
2022-10-13T08:41:53.198Z,21.92
2022-10-13T08:48:07.638Z,22.70
2022-10-13T08:50:41.147Z,21.65
2022-10-13T08:53:41.230Z,22.33
2022-10-13T08:56:35.962Z,22.15
2022-10-13T08:59:05.117Z,23.02
2022-10-13T09:01:36.239Z,23.17
2022-10-13T09:04:39.295Z,22.30
2022-10-13T09:46:26.590Z,26.80
2022-10-13T09:49:08.283Z,32.25
2022-10-13T09:51:40.138Z,35.22
2022-10-13T09:54:29.006Z,34.63
2022-10-13T09:57:37.656Z,36.28
2022-10-13T10:00:27.156Z,34.33
2022-10-13T10:03:29.445Z,33.53
2022-10-13T10:06:00.734Z,29.67
2022-10-13T10:09:02.704Z,31.40
2022-10-13T10:11:40.152Z,30.42
2022-10-13T10:14:37.143Z,31.02
2022-10-13T10:17:32.629Z,31.58
2022-10-13T10:20:18.644Z,32.70
2022-10-13T10:23:04.099Z,32.70
2022-10-13T10:25:42.040Z,30.38
2022-10-13T10:28:15.181Z,31.35
2022-10-13T10:55:53.177Z,27.83
2022-10-13T10:58:42.260Z,24.42
2022-10-13T11:01:12.521Z,26.00
2022-10-13T11:03:59.678Z,25.77
2022-10-13T11:06:38.330Z,24.55
2022-10-13T11:09:06.614Z,25.33
2022-10-13T11:11:38.349Z,24.88
2022-10-13T11:14:05.547Z,24.75
2022-10-13T11:16:41.678Z,25.33
2022-10-13T11:19:08.994Z,23.85
2022-10-13T11:21:59.815Z,24.45
2022-10-13T11:25:29.537Z,23.75
2022-10-13T11:27:56.854Z,24.30
2022-10-13T11:30:51.677Z,24.02
2022-10-13T11:33:40.955Z,24.42
2022-10-13T11:36:32.783Z,24.42
2022-10-13T11:39:52.384Z,23.35
2022-10-13T11:43:05.078Z,23.58
2022-10-13T11:45:59.575Z,24.05
2022-10-13T11:48:55.966Z,23.40
2022-10-13T11:51:46.975Z,25.30
2022-10-13T11:54:39.974Z,24.50
2022-10-13T11:57:26.692Z,23.17
2022-10-13T11:59:57.008Z,23.55
2022-10-13T12:02:28.011Z,24.00
2022-10-13T12:05:25.938Z,25.73
2022-10-13T12:08:03.843Z,23.83
2022-10-13T12:10:38.137Z,23.23
2022-10-13T12:13:06.114Z,23.98
2022-10-13T12:16:03.351Z,24.30
2022-10-13T12:18:38.450Z,23.13
2022-10-13T12:21:14.933Z,23.05
2022-10-13T12:23:42.385Z,21.10
2022-10-13T12:26:18.071Z,21.42
2022-10-13T12:29:01.733Z,21.70
2022-10-13T12:31:43.535Z,24.30
2022-10-13T12:34:36.050Z,23.17
2022-10-13T12:37:15.163Z,24.27
2022-10-13T12:39:43.528Z,23.60
2022-10-13T12:42:14.778Z,22.27
2022-10-13T12:44:42.688Z,21.50
2022-10-13T12:47:45.137Z,22.80
2022-10-13T12:50:28.227Z,22.30
2022-10-13T12:53:28.592Z,22.30
2022-10-13T12:56:01.975Z,22.50
2022-10-13T12:58:34.024Z,22.10
2022-10-13T13:01:31.173Z,21.52
2022-10-13T13:04:16.725Z,21.17
2022-10-13T13:07:00.404Z,21.27
2022-10-13T13:09:34.252Z,20.75
2022-10-13T13:12:13.787Z,20.67
2022-10-13T13:14:51.057Z,21.17
2022-10-13T13:17:38.459Z,21.80
2022-10-13T13:20:32.124Z,23.10
2022-10-13T13:23:01.759Z,21.08
2022-10-13T13:25:29.098Z,21.35
2022-10-13T13:27:56.377Z,22.27
2022-10-13T13:30:24.815Z,21.52
2022-10-13T13:32:53.871Z,21.90
2022-10-13T13:35:21.216Z,21.65
2022-10-13T13:37:51.296Z,21.20
2022-10-13T13:40:26.274Z,21.83
2022-10-13T13:42:54.964Z,22.38
2022-10-13T13:45:25.530Z,20.30
2022-10-13T13:47:54.957Z,19.40
2022-10-13T13:50:33.236Z,18.83
2022-10-13T13:53:01.199Z,18.40
2022-10-13T13:55:30.556Z,18.48
2022-10-13T13:57:58.826Z,18.55
2022-10-13T14:00:26.560Z,19.95
2022-10-13T14:02:53.974Z,20.50
2022-10-13T14:05:21.360Z,20.88
2022-10-13T14:07:48.715Z,20.30
2022-10-13T14:10:16.117Z,20.27
2022-10-13T14:12:43.563Z,20.88
2022-10-13T14:15:11.152Z,21.10
2022-10-13T14:17:38.481Z,19.77
2022-10-13T14:20:06.660Z,20.75
2022-10-13T14:22:33.943Z,18.90
2022-10-13T14:25:01.258Z,18.65
2022-10-13T14:27:28.786Z,18.33
2022-10-13T14:29:56.082Z,18.90
2022-10-13T14:32:23.640Z,18.27
2022-10-13T14:34:53.594Z,17.63
2022-10-13T14:37:23.170Z,17.50
2022-10-13T14:39:51.154Z,17.27
2022-10-13T14:42:18.413Z,18.45
2022-10-13T14:44:46.523Z,18.25
2022-10-13T14:47:13.774Z,18.88
2022-10-13T14:49:40.973Z,18.73
2022-10-13T14:52:08.897Z,19.13
2022-10-13T14:54:39.044Z,18.02
2022-10-13T14:57:15.583Z,19.33
2022-10-13T14:59:44.334Z,18.80
2022-10-13T15:02:15.410Z,18.73
2022-10-13T15:04:42.771Z,18.60
2022-10-13T15:07:10.042Z,19.23
2022-10-13T15:09:52.810Z,18.63
2022-10-13T15:12:24.636Z,18.67
2022-10-13T15:14:51.931Z,17.95
2022-10-13T15:17:19.258Z,20.13
2022-10-13T15:19:48.590Z,19.02
2022-10-13T15:22:16.418Z,18.98
2022-10-13T15:24:43.743Z,18.43
2022-10-13T15:27:11.138Z,19.23
2022-10-13T15:29:38.489Z,19.52
2022-10-13T15:32:18.289Z,19.13
2022-10-13T15:34:46.436Z,19.92
2022-10-13T15:37:15.304Z,19.42
2022-10-13T15:39:42.612Z,19.08
2022-10-13T15:42:11.857Z,19.33
2022-10-13T15:44:57.742Z,20.05
2022-10-13T15:47:26.663Z,19.60
2022-10-13T15:49:54.603Z,19.73
2022-10-13T15:52:22.509Z,20.27
2022-10-13T15:54:51.723Z,20.88
2022-10-13T15:57:19.688Z,20.15
2022-10-13T15:59:46.990Z,20.23
2022-10-13T16:02:15.118Z,19.00
2022-10-13T16:04:43.692Z,19.05
2022-10-13T16:07:11.186Z,19.95
2022-10-13T16:09:39.752Z,18.17
2022-10-13T16:14:34.436Z,19.90
2022-10-13T16:17:01.793Z,18.30
2022-10-13T16:19:29.547Z,20.63
2022-10-13T16:21:56.973Z,20.50
2022-10-13T16:24:24.376Z,19.20
2022-10-13T16:26:51.664Z,19.27
2022-10-13T16:29:19.066Z,19.30
2022-10-13T16:31:48.795Z,20.52
2022-10-13T16:34:16.300Z,21.25
2022-10-13T16:36:43.803Z,23.65
2022-10-13T16:39:11.567Z,22.40
2022-10-13T16:41:38.930Z,29.48
2022-10-13T16:44:06.842Z,20.70
2022-10-13T16:46:34.138Z,18.40
2022-10-13T16:49:02.009Z,22.20
2022-10-13T16:51:29.697Z,20.20
2022-10-13T16:54:03.853Z,21.80
2022-10-13T16:56:32.703Z,24.48
2022-10-13T16:59:04.601Z,25.92
2022-10-13T17:01:34.044Z,23.85
2022-10-13T17:04:02.008Z,25.77
2022-10-13T17:06:30.207Z,24.00
2022-10-13T17:08:59.853Z,25.50
2022-10-13T17:13:59.370Z,26.98
2022-10-13T17:16:27.536Z,27.73
2022-10-13T17:18:56.144Z,28.95
2022-10-13T17:21:23.707Z,27.95
2022-10-13T17:23:51.274Z,28.48
2022-10-13T17:26:21.131Z,27.47
2022-10-13T17:28:48.906Z,27.95
2022-10-13T17:31:20.696Z,30.35
2022-10-13T17:33:48.983Z,29.10
2022-10-13T17:36:22.329Z,32.60
2022-10-13T17:38:50.979Z,29.25
2022-10-13T17:43:46.732Z,31.60
2022-10-13T17:46:41.849Z,33.72
2022-10-13T17:49:12.249Z,31.70
2022-10-13T17:51:42.287Z,31.63
2022-10-13T17:54:16.062Z,33.55
2022-10-13T17:56:45.634Z,32.83
2022-10-13T17:59:15.342Z,32.70
2022-10-13T18:01:43.668Z,32.38
2022-10-13T18:04:18.227Z,32.63
2022-10-13T18:06:46.014Z,30.83
2022-10-13T18:09:20.115Z,29.75
2022-10-13T18:11:51.198Z,31.73
2022-10-13T18:14:24.634Z,30.70
2022-10-13T18:16:53.591Z,31.02
2022-10-13T18:19:21.794Z,29.48
2022-10-13T18:21:49.922Z,28.88
2022-10-13T18:24:17.569Z,31.50
2022-10-13T18:26:46.964Z,29.75
2022-10-13T18:29:14.513Z,30.50
2022-10-13T18:31:42.285Z,30.42
2022-10-13T18:34:16.940Z,31.30
2022-10-13T18:36:52.148Z,30.27
2022-10-13T18:39:26.905Z,29.63
2022-10-13T18:41:56.591Z,28.98
2022-10-13T18:44:25.083Z,28.77
2022-10-13T18:49:31.254Z,30.15
2022-10-13T18:52:02.190Z,29.23
2022-10-13T18:54:30.260Z,34.13
2022-10-13T18:56:57.720Z,32.67
2022-10-13T18:59:25.019Z,33.83
2022-10-13T19:01:52.638Z,30.95
2022-10-13T19:04:23.628Z,32.50
2022-10-13T19:06:50.924Z,31.38
2022-10-13T19:09:18.276Z,29.33
2022-10-13T19:11:45.683Z,30.00
2022-10-13T19:14:15.454Z,28.42
2022-10-13T19:16:44.243Z,29.73
2022-10-13T19:19:12.348Z,30.02
2022-10-13T19:21:40.532Z,29.15
2022-10-13T19:24:08.622Z,28.98
2022-10-13T19:26:37.514Z,31.42
2022-10-13T19:29:09.916Z,29.77
2022-10-13T19:31:39.286Z,29.50
2022-10-13T19:34:06.695Z,29.73
2022-10-13T19:36:42.288Z,29.92
2022-10-13T19:39:24.016Z,29.42
2022-10-13T19:41:54.658Z,28.90
2022-10-13T19:44:24.634Z,30.90
2022-10-13T19:46:53.879Z,30.63
2022-10-13T19:49:26.490Z,29.85
2022-10-13T19:51:54.910Z,29.10
2022-10-13T19:54:23.806Z,30.15
2022-10-13T19:56:51.631Z,28.95
2022-10-13T19:59:19.560Z,28.93
2022-10-13T20:01:47.611Z,29.25
2022-10-13T20:04:18.656Z,28.20
2022-10-13T20:06:50.756Z,28.00
2022-10-13T20:09:19.400Z,29.33
2022-10-13T20:11:49.956Z,29.48
2022-10-13T20:14:18.612Z,28.70
2022-10-13T20:16:46.509Z,28.02
2022-10-13T20:19:19.447Z,28.15
2022-10-13T20:21:48.100Z,30.50
2022-10-13T20:24:16.518Z,30.50
2022-10-13T20:26:43.917Z,31.02
2022-10-13T20:29:12.222Z,28.37
2022-10-13T20:31:39.725Z,27.77
2022-10-13T20:34:07.583Z,28.70
2022-10-13T20:36:38.526Z,29.13
2022-10-13T20:39:08.277Z,27.52
2022-10-13T20:41:35.602Z,28.05
2022-10-13T20:44:03.367Z,29.40
2022-10-13T20:46:30.964Z,29.27
2022-10-13T20:49:10.464Z,29.07
2022-10-13T20:51:40.345Z,29.00
2022-10-13T20:54:07.996Z,29.88
2022-10-13T20:56:35.867Z,28.90
2022-10-13T20:59:11.198Z,28.27
2022-10-13T21:01:39.366Z,28.50
2022-10-13T21:04:07.320Z,28.20
2022-10-13T21:06:35.901Z,29.50
2022-10-13T21:11:33.902Z,28.58
2022-10-13T21:16:35.028Z,28.48
2022-10-13T21:19:02.895Z,27.65
2022-10-13T21:21:33.565Z,29.63
2022-10-13T21:24:05.389Z,28.33
2022-10-13T21:26:34.236Z,28.35
2022-10-13T21:29:01.830Z,28.88
2022-10-13T21:31:30.129Z,28.23
2022-10-13T21:33:58.221Z,27.88
2022-10-13T21:36:31.612Z,28.08
2022-10-13T21:39:05.961Z,28.85
2022-10-13T21:41:33.546Z,30.58
2022-10-13T21:44:00.924Z,31.48
2022-10-13T21:46:31.553Z,29.55
2022-10-13T21:49:02.244Z,29.83
2022-10-13T21:51:36.646Z,29.75
2022-10-13T21:54:11.328Z,29.20
2022-10-13T21:56:40.893Z,30.23
2022-10-13T21:59:10.192Z,29.17
2022-10-13T22:01:37.407Z,30.30
2022-10-13T22:04:06.361Z,31.05
